Stephenson, Virginia
Current Conditions -  °F | °C
As of 2:35 PM on Thursday 30 Oct 2014 (Local Time) from KOKV Reporting Station
Overcast Overcast  
Wind Chill: 54°   Ceiling: 4800
Heat Index: 54°   Visibility: 10mi
Dew Point: 32°   Wind: 9mph
Humidity: 44%   Direction: 310°NW
Pressure: 30.05"   Gusts: NA
Location:  39.22°N, 78.09°W
Report Text: KOKV 301835Z AUTO 31008KT 10SM OVC048 12/00 A3005 RMK AO2
Loading
Personal Weather Stations






























Interactive Weather Map
Tropical Storm Tracking
New forecast layout! Learn more

10-Day Weather Forecast

Advertisements
Track Severe Weather on mobile